createdAt,value
2019-05-26T00:00:42.204Z,3.87
2019-05-26T00:03:11.592Z,5.50
2019-05-26T00:05:41.296Z,4.23
2019-05-26T00:08:11.004Z,3.80
2019-05-26T00:10:40.377Z,4.00
2019-05-26T00:13:10.142Z,4.07
2019-05-26T00:15:39.520Z,3.63
2019-05-26T00:18:09.235Z,3.60
2019-05-26T00:20:38.950Z,4.03
2019-05-26T00:23:08.324Z,4.33
2019-05-26T00:25:37.737Z,5.37
2019-05-26T00:28:07.179Z,5.60
2019-05-26T00:30:36.568Z,4.20
2019-05-26T00:33:05.945Z,4.70
2019-05-26T00:35:35.335Z,4.97
2019-05-26T00:38:04.751Z,3.93
2019-05-26T00:40:34.377Z,3.90
2019-05-26T00:43:03.795Z,4.07
2019-05-26T00:45:33.191Z,3.80
2019-05-26T00:48:02.887Z,4.37
2019-05-26T00:50:32.273Z,3.50
2019-05-26T00:53:01.824Z,4.10
2019-05-26T00:55:31.777Z,4.63
2019-05-26T00:58:01.165Z,3.43
2019-05-26T01:00:44.121Z,3.92
2019-05-26T01:03:13.954Z,4.30
2019-05-26T01:05:43.416Z,4.13
2019-05-26T01:08:12.961Z,3.80
2019-05-26T01:10:42.673Z,3.73
2019-05-26T01:13:12.385Z,4.53
2019-05-26T01:15:42.095Z,3.83
2019-05-26T01:18:11.551Z,4.30
2019-05-26T01:20:41.206Z,4.33
2019-05-26T01:23:10.920Z,4.17
2019-05-26T01:25:40.307Z,4.00
2019-05-26T01:28:09.678Z,4.10
2019-05-26T01:30:40.259Z,3.90
2019-05-26T01:33:09.629Z,3.90
2019-05-26T01:35:41.608Z,3.50
2019-05-26T01:38:23.268Z,3.60
2019-05-26T01:40:46.171Z,3.70
2019-05-26T01:43:15.786Z,3.80
2019-05-26T01:45:45.475Z,4.00
2019-05-26T01:48:14.921Z,3.50
2019-05-26T01:50:44.591Z,3.87
2019-05-26T01:53:14.300Z,3.27
2019-05-26T01:55:43.681Z,3.90
2019-05-26T01:58:13.073Z,3.10
2019-05-26T02:00:42.949Z,3.83
2019-05-26T02:03:12.322Z,3.00
2019-05-26T02:05:41.716Z,3.47
2019-05-26T02:08:12.181Z,4.27
2019-05-26T02:10:41.715Z,3.50
2019-05-26T02:13:11.332Z,4.13
2019-05-26T02:15:40.959Z,3.57
2019-05-26T02:18:10.401Z,4.67
2019-05-26T02:20:40.029Z,4.05
2019-05-26T02:23:09.651Z,4.53
2019-05-26T02:25:39.034Z,3.43
2019-05-26T02:28:08.673Z,4.57
2019-05-26T02:30:38.320Z,4.10
2019-05-26T02:33:07.934Z,4.10
2019-05-26T02:35:37.326Z,4.97
2019-05-26T02:38:07.028Z,4.23
2019-05-26T02:40:36.424Z,3.50
2019-05-26T02:43:05.864Z,3.80
2019-05-26T02:45:35.254Z,3.70
2019-05-26T02:48:05.002Z,4.37
2019-05-26T02:50:34.462Z,3.30
2019-05-26T02:53:03.838Z,3.77
2019-05-26T02:55:33.479Z,3.20
2019-05-26T02:58:03.096Z,4.30
2019-05-26T03:01:06.600Z,3.73
2019-05-26T03:03:36.135Z,3.73
2019-05-26T03:06:06.480Z,3.23
2019-05-26T03:08:37.864Z,3.87
2019-05-26T03:11:10.354Z,3.40
2019-05-26T03:13:42.137Z,3.40
2019-05-26T03:16:12.155Z,3.67
2019-05-26T03:18:43.648Z,3.83
2019-05-26T03:21:16.420Z,5.40
2019-05-26T03:23:49.770Z,4.03
2019-05-26T03:26:21.606Z,3.70
2019-05-26T03:28:51.228Z,3.60
2019-05-26T03:31:20.965Z,3.50
2019-05-26T03:33:50.311Z,3.77
2019-05-26T03:36:20.066Z,3.60
2019-05-26T03:38:49.427Z,3.60
2019-05-26T03:41:19.150Z,3.70
2019-05-26T03:43:48.538Z,3.70
2019-05-26T03:46:19.637Z,3.50
2019-05-26T03:48:49.525Z,3.40
2019-05-26T03:51:19.628Z,3.57
2019-05-26T03:53:49.429Z,4.53
2019-05-26T03:56:19.159Z,4.23
2019-05-26T03:58:48.869Z,3.60
2019-05-26T04:01:18.289Z,4.00
2019-05-26T04:03:47.684Z,3.50
2019-05-26T04:06:17.138Z,3.47
2019-05-26T04:08:46.512Z,4.40
2019-05-26T04:11:15.889Z,4.30
2019-05-26T04:13:45.288Z,5.20
2019-05-26T04:16:14.740Z,3.77
2019-05-26T04:18:44.124Z,4.43
2019-05-26T04:21:13.795Z,4.20
2019-05-26T04:23:43.505Z,4.60
2019-05-26T04:26:13.120Z,4.60
2019-05-26T04:28:42.509Z,4.57
2019-05-26T04:31:11.946Z,4.43
2019-05-26T04:33:41.577Z,4.53
2019-05-26T04:36:11.193Z,5.00
2019-05-26T04:38:40.578Z,4.77
2019-05-26T04:41:10.194Z,6.00
2019-05-26T04:43:39.601Z,5.27
2019-05-26T04:46:09.263Z,5.10
2019-05-26T04:48:38.650Z,5.20
2019-05-26T04:51:08.030Z,5.33
2019-05-26T04:53:37.783Z,5.27
2019-05-26T04:56:07.485Z,5.43
2019-05-26T04:58:36.869Z,4.60
2019-05-26T05:01:06.500Z,4.97
2019-05-26T05:03:35.884Z,5.20
2019-05-26T05:06:05.712Z,5.17
2019-05-26T05:08:35.105Z,4.87
2019-05-26T05:11:04.881Z,5.93
2019-05-26T05:13:34.511Z,5.60
2019-05-26T05:16:03.893Z,5.83
2019-05-26T05:18:33.565Z,7.07
2019-05-26T05:21:02.942Z,5.60
2019-05-26T05:23:32.567Z,5.83
2019-05-26T05:26:01.980Z,6.07
2019-05-26T05:28:31.674Z,6.83
2019-05-26T05:31:01.060Z,7.77
2019-05-26T05:33:30.455Z,6.27
2019-05-26T05:35:59.834Z,7.00
2019-05-26T05:38:29.462Z,6.40
2019-05-26T05:41:00.394Z,6.77
2019-05-26T05:43:30.251Z,6.50
2019-05-26T05:45:59.635Z,6.47
2019-05-26T05:48:29.264Z,5.87
2019-05-26T05:50:58.878Z,6.17
2019-05-26T05:53:28.266Z,5.83
2019-05-26T05:55:57.643Z,7.63
2019-05-26T05:58:27.038Z,6.13
2019-05-26T06:00:56.688Z,6.20
2019-05-26T06:03:26.082Z,5.73
2019-05-26T06:05:55.455Z,6.27
2019-05-26T06:08:24.835Z,5.70
2019-05-26T06:10:54.472Z,5.47
2019-05-26T06:13:23.848Z,5.50
2019-05-26T06:15:53.225Z,6.03
2019-05-26T06:18:22.915Z,5.20
2019-05-26T06:20:52.299Z,5.70
2019-05-26T06:23:22.021Z,5.00
2019-05-26T06:25:51.446Z,5.23
2019-05-26T06:28:20.790Z,5.33
2019-05-26T06:30:50.452Z,5.20
2019-05-26T06:33:20.147Z,5.30
2019-05-26T06:35:49.862Z,6.97
2019-05-26T06:38:19.242Z,5.23
2019-05-26T06:40:48.640Z,5.50
2019-05-26T06:43:18.282Z,5.50
2019-05-26T06:45:47.706Z,5.23
2019-05-26T06:48:17.107Z,6.23
2019-05-26T06:50:46.467Z,6.13
2019-05-26T06:53:16.205Z,5.00
2019-05-26T06:55:45.896Z,5.33
2019-05-26T06:58:15.602Z,5.10
2019-05-26T07:00:45.304Z,4.23
2019-05-26T07:03:14.944Z,4.83
2019-05-26T07:05:44.339Z,4.43
2019-05-26T07:08:13.981Z,5.77
2019-05-26T07:10:43.644Z,4.90
2019-05-26T07:13:13.355Z,4.20
2019-05-26T07:15:43.064Z,4.77
2019-05-26T07:18:12.495Z,4.90
2019-05-26T07:20:42.595Z,4.37
2019-05-26T07:23:12.261Z,4.07
2019-05-26T07:25:41.958Z,4.90
2019-05-26T07:28:11.343Z,4.70
2019-05-26T07:30:40.821Z,4.20
2019-05-26T07:33:10.434Z,3.90
2019-05-26T07:35:40.130Z,4.23
2019-05-26T07:38:09.845Z,3.97
2019-05-26T07:40:39.231Z,3.97
2019-05-26T07:43:08.973Z,3.20
2019-05-26T07:45:38.370Z,4.33
2019-05-26T07:48:07.748Z,4.33
2019-05-26T07:50:37.471Z,4.80
2019-05-26T07:53:06.905Z,3.10
2019-05-26T07:55:36.522Z,3.73
2019-05-26T07:58:06.293Z,3.83
2019-05-26T08:00:36.017Z,3.00
2019-05-26T08:03:05.386Z,4.17
2019-05-26T08:05:34.770Z,4.93
2019-05-26T08:08:12.629Z,4.47
2019-05-26T08:10:35.877Z,2.87
2019-05-26T08:13:05.253Z,5.07
2019-05-26T08:15:34.639Z,5.13
2019-05-26T08:18:04.019Z,4.63
2019-05-26T08:20:33.651Z,5.37
2019-05-26T08:23:03.116Z,5.30
2019-05-26T08:25:32.510Z,2.70
2019-05-26T08:28:02.203Z,3.47
2019-05-26T08:30:31.589Z,4.03
2019-05-26T08:33:00.982Z,3.00
2019-05-26T08:35:30.406Z,3.10
2019-05-26T08:38:00.028Z,2.70
2019-05-26T08:40:29.418Z,3.40
2019-05-26T08:42:58.786Z,3.10
2019-05-26T08:45:28.436Z,5.27
2019-05-26T08:47:57.811Z,3.70
2019-05-26T08:50:27.190Z,2.70
2019-05-26T08:52:56.580Z,3.37
2019-05-26T08:55:25.951Z,3.97
2019-05-26T08:57:55.346Z,4.47
2019-05-26T09:00:26.128Z,3.27
2019-05-26T09:02:55.518Z,4.20
2019-05-26T09:05:25.130Z,2.60
2019-05-26T09:07:54.522Z,3.43
2019-05-26T09:10:24.209Z,4.90
2019-05-26T09:13:00.837Z,3.50
2019-05-26T09:15:24.971Z,3.70
2019-05-26T09:17:54.367Z,2.63
2019-05-26T09:20:23.952Z,5.37
2019-05-26T09:22:53.345Z,2.80
2019-05-26T09:25:22.789Z,3.53
2019-05-26T09:27:53.347Z,4.33
2019-05-26T09:30:23.162Z,2.87
2019-05-26T09:32:52.830Z,3.73
2019-05-26T09:35:22.542Z,3.43
2019-05-26T09:37:51.947Z,7.67
2019-05-26T09:40:21.653Z,4.22
2019-05-26T09:42:51.294Z,4.50
2019-05-26T09:45:21.042Z,5.33
2019-05-26T09:47:50.432Z,4.27
2019-05-26T09:50:20.503Z,4.23
2019-05-26T09:52:50.215Z,5.87
2019-05-26T09:55:20.485Z,6.43
2019-05-26T09:57:49.878Z,6.03
2019-05-26T10:00:21.570Z,4.60
2019-05-26T10:02:50.952Z,6.97
2019-05-26T10:05:21.829Z,9.53
2019-05-26T10:07:51.536Z,7.70
2019-05-26T10:10:21.122Z,5.07
2019-05-26T10:12:50.507Z,6.20
2019-05-26T10:15:20.518Z,6.13
2019-05-26T10:17:49.953Z,5.27
2019-05-26T10:20:19.735Z,6.37
2019-05-26T10:22:49.134Z,7.10
2019-05-26T10:25:18.571Z,5.73
2019-05-26T10:27:48.296Z,6.90
2019-05-26T10:30:19.101Z,6.40
2019-05-26T10:32:48.494Z,4.77
2019-05-26T10:35:18.061Z,5.73
2019-05-26T10:37:47.440Z,4.30
2019-05-26T10:40:17.499Z,5.37
2019-05-26T10:42:46.896Z,5.37
2019-05-26T10:45:16.802Z,6.53
2019-05-26T10:47:46.486Z,5.47
2019-05-26T10:50:18.573Z,5.03
2019-05-26T10:52:47.960Z,6.40
2019-05-26T10:55:17.471Z,4.90
2019-05-26T10:58:28.492Z,5.53
2019-05-26T11:00:57.876Z,4.60
2019-05-26T11:03:27.268Z,4.20
2019-05-26T11:05:56.785Z,7.23
2019-05-26T11:08:26.405Z,4.13
2019-05-26T11:10:56.077Z,5.27
2019-05-26T11:13:31.826Z,4.53
2019-05-26T11:16:01.260Z,5.37
2019-05-26T11:18:30.646Z,4.97
2019-05-26T11:21:00.643Z,5.50
2019-05-26T11:23:35.618Z,5.17
2019-05-26T11:26:06.193Z,4.83
2019-05-26T11:28:35.837Z,4.13
2019-05-26T11:31:05.209Z,4.60
2019-05-26T11:33:34.950Z,3.83
2019-05-26T11:36:04.325Z,3.47
2019-05-26T11:38:34.008Z,5.30
2019-05-26T11:41:03.386Z,4.57
2019-05-26T11:43:34.178Z,3.67
2019-05-26T11:46:04.091Z,4.20
2019-05-26T11:48:33.482Z,3.40
2019-05-26T11:51:03.528Z,4.20
2019-05-26T11:53:33.228Z,4.53
2019-05-26T11:56:02.941Z,4.83
2019-05-26T11:58:32.332Z,6.60
2019-05-26T12:01:01.708Z,5.07
2019-05-26T12:03:31.092Z,3.87
2019-05-26T12:06:00.467Z,4.50
2019-05-26T12:08:29.854Z,4.03
2019-05-26T12:10:59.275Z,3.90
2019-05-26T12:13:28.788Z,3.70
2019-05-26T12:15:58.484Z,2.90
2019-05-26T12:18:28.202Z,6.47
2019-05-26T12:20:57.899Z,5.27
2019-05-26T12:23:27.531Z,3.73
2019-05-26T12:25:57.073Z,3.73
2019-05-26T12:28:29.485Z,3.77
2019-05-26T12:30:58.880Z,3.30
2019-05-26T12:33:28.264Z,4.57
2019-05-26T12:35:57.894Z,3.73
2019-05-26T12:38:27.612Z,4.17
2019-05-26T12:41:01.741Z,3.43
2019-05-26T12:43:31.375Z,3.40
2019-05-26T12:46:03.547Z,3.20
2019-05-26T12:48:33.072Z,3.80
2019-05-26T12:51:06.491Z,3.50
2019-05-26T12:53:35.939Z,3.20
2019-05-26T12:56:05.489Z,3.20
2019-05-26T12:58:37.607Z,4.77
2019-05-26T13:01:11.500Z,2.90
2019-05-26T13:03:41.296Z,4.63
2019-05-26T13:06:10.684Z,3.77
2019-05-26T13:08:42.168Z,4.97
2019-05-26T13:11:11.877Z,3.23
2019-05-26T13:13:41.746Z,7.63
2019-05-26T13:16:31.167Z,3.00
2019-05-26T13:19:00.799Z,2.63
2019-05-26T13:21:30.472Z,3.60
2019-05-26T13:24:00.182Z,3.67
2019-05-26T13:26:29.581Z,4.07
2019-05-26T13:28:58.951Z,2.63
2019-05-26T13:31:32.424Z,2.53
2019-05-26T13:34:02.759Z,2.60
2019-05-26T13:36:32.196Z,2.20
2019-05-26T13:39:01.616Z,2.40
2019-05-26T13:41:31.001Z,3.13
2019-05-26T13:44:00.375Z,3.93
2019-05-26T13:46:29.763Z,2.07
2019-05-26T13:48:59.430Z,3.40
2019-05-26T13:51:29.142Z,3.97
2019-05-26T13:53:58.875Z,1.80
2019-05-26T13:56:28.582Z,3.33
2019-05-26T13:58:57.969Z,3.93
2019-05-26T14:01:27.361Z,2.50
2019-05-26T14:03:56.738Z,1.90
2019-05-26T14:06:26.482Z,1.57
2019-05-26T14:08:55.869Z,2.60
2019-05-26T14:11:25.593Z,3.07
2019-05-26T14:13:55.307Z,1.83
2019-05-26T14:16:28.356Z,2.97
2019-05-26T14:18:58.571Z,3.27
2019-05-26T14:21:28.223Z,3.50
2019-05-26T14:23:57.933Z,3.33
2019-05-26T14:26:27.326Z,2.03
2019-05-26T14:28:56.698Z,2.20
2019-05-26T14:31:26.336Z,2.53
2019-05-26T14:33:56.064Z,2.60
2019-05-26T14:36:25.688Z,2.40
2019-05-26T14:38:55.307Z,2.63
2019-05-26T14:41:24.944Z,2.83
2019-05-26T14:43:54.590Z,2.87
2019-05-26T14:46:24.299Z,2.40
2019-05-26T14:48:54.016Z,3.00
2019-05-26T14:51:23.404Z,3.83
2019-05-26T14:53:53.139Z,2.77
2019-05-26T14:56:22.568Z,2.33
2019-05-26T14:58:52.190Z,2.30
2019-05-26T15:01:21.579Z,2.50
2019-05-26T15:03:51.199Z,2.37
2019-05-26T15:06:20.857Z,2.63
2019-05-26T15:08:50.471Z,2.57
2019-05-26T15:11:20.180Z,3.80
2019-05-26T15:13:49.597Z,2.83
2019-05-26T15:16:19.064Z,2.77
2019-05-26T15:18:48.440Z,3.20
2019-05-26T15:21:18.263Z,2.40
2019-05-26T15:23:47.790Z,2.53
2019-05-26T15:26:17.527Z,3.87
2019-05-26T15:28:47.223Z,2.60
2019-05-26T15:31:16.613Z,2.57
2019-05-26T15:33:46.060Z,3.50
2019-05-26T15:36:16.177Z,2.83
2019-05-26T15:38:45.737Z,2.63
2019-05-26T15:41:15.129Z,5.00
2019-05-26T15:43:44.498Z,4.23
2019-05-26T15:46:24.619Z,5.33
2019-05-26T15:48:45.530Z,3.57
2019-05-26T15:51:15.334Z,2.97
2019-05-26T15:53:44.723Z,2.53
2019-05-26T15:56:14.123Z,2.53
2019-05-26T15:58:43.744Z,2.37
2019-05-26T16:01:13.189Z,2.63
2019-05-26T16:03:43.190Z,2.80
2019-05-26T16:06:12.879Z,4.00
2019-05-26T16:08:42.504Z,2.37
2019-05-26T16:11:12.233Z,2.40
2019-05-26T16:13:41.618Z,2.03
2019-05-26T16:16:11.330Z,2.00
2019-05-26T16:18:41.020Z,3.33
2019-05-26T16:21:25.071Z,3.87
2019-05-26T16:23:41.910Z,2.20
2019-05-26T16:26:11.264Z,2.23
2019-05-26T16:28:40.657Z,2.30
2019-05-26T16:31:12.293Z,2.00
2019-05-26T16:33:41.945Z,2.97
2019-05-26T16:36:11.304Z,2.03
2019-05-26T16:38:40.694Z,2.17
2019-05-26T16:41:10.359Z,2.30
2019-05-26T16:43:39.750Z,1.97
2019-05-26T16:46:09.180Z,2.37
2019-05-26T16:48:38.873Z,2.63
2019-05-26T16:51:08.487Z,1.90
2019-05-26T16:53:37.878Z,2.10
2019-05-26T16:56:07.600Z,2.23
2019-05-26T16:58:37.307Z,2.47
2019-05-26T17:01:07.118Z,2.53
2019-05-26T17:03:36.878Z,2.53
2019-05-26T17:06:08.138Z,1.83
2019-05-26T17:08:37.633Z,2.10
2019-05-26T17:11:07.296Z,2.07
2019-05-26T17:13:36.999Z,2.00
2019-05-26T17:16:06.714Z,2.00
2019-05-26T17:18:36.369Z,2.10
2019-05-26T17:21:06.295Z,1.80
2019-05-26T17:23:35.946Z,2.10
2019-05-26T17:26:05.656Z,1.97
2019-05-26T17:28:35.035Z,2.53
2019-05-26T17:31:04.950Z,2.00
2019-05-26T17:33:34.343Z,1.40
2019-05-26T17:36:03.989Z,1.87
2019-05-26T17:38:33.367Z,3.03
2019-05-26T17:41:02.748Z,1.73
2019-05-26T17:43:32.134Z,1.43
2019-05-26T17:46:01.801Z,1.70
2019-05-26T17:48:31.191Z,1.93
2019-05-26T17:51:01.232Z,2.03
2019-05-26T17:53:30.954Z,1.97
2019-05-26T17:56:00.335Z,2.03
2019-05-26T17:58:31.719Z,1.80
2019-05-26T18:01:01.102Z,1.67
2019-05-26T18:03:30.495Z,1.50
2019-05-26T18:06:00.197Z,2.47
2019-05-26T18:08:29.834Z,2.20
2019-05-26T18:10:59.517Z,1.53
2019-05-26T18:13:29.224Z,1.47
2019-05-26T18:15:58.599Z,2.70
2019-05-26T18:18:28.237Z,2.07
2019-05-26T18:20:57.858Z,2.42
2019-05-26T18:23:27.501Z,2.07
2019-05-26T18:25:57.165Z,1.73
2019-05-26T18:28:26.551Z,1.80
2019-05-26T18:30:55.928Z,1.80
2019-05-26T18:33:25.358Z,2.20
2019-05-26T18:35:54.744Z,3.70
2019-05-26T18:38:24.131Z,2.83
2019-05-26T18:40:53.784Z,2.20
2019-05-26T18:43:23.169Z,2.00
2019-05-26T18:45:52.895Z,2.50
2019-05-26T18:48:22.281Z,4.50
2019-05-26T18:50:51.908Z,1.73
2019-05-26T18:53:21.281Z,1.93
2019-05-26T18:55:50.945Z,2.10
2019-05-26T18:58:20.305Z,2.00
2019-05-26T19:00:50.342Z,2.30
2019-05-26T19:03:20.256Z,1.90
2019-05-26T19:05:49.987Z,2.40
2019-05-26T19:08:19.364Z,2.33
2019-05-26T19:10:48.800Z,2.03
2019-05-26T19:13:18.487Z,2.27
2019-05-26T19:15:47.937Z,2.40
2019-05-26T19:18:20.227Z,2.70
2019-05-26T19:20:48.435Z,2.17
2019-05-26T19:23:17.810Z,2.37
2019-05-26T19:25:47.548Z,3.23
2019-05-26T19:28:17.172Z,2.50
2019-05-26T19:30:46.568Z,2.17
2019-05-26T19:33:16.221Z,2.07
2019-05-26T19:35:45.984Z,2.13
2019-05-26T19:38:15.358Z,2.30
2019-05-26T19:40:44.828Z,1.93
2019-05-26T19:43:14.205Z,3.27
2019-05-26T19:45:43.591Z,2.43
2019-05-26T19:48:12.975Z,2.33
2019-05-26T19:50:42.394Z,2.03
2019-05-26T19:53:12.006Z,2.10
2019-05-26T19:55:41.628Z,3.50
2019-05-26T19:58:11.070Z,2.07
2019-05-26T20:00:40.779Z,3.10
2019-05-26T20:03:10.160Z,2.60
2019-05-26T20:05:39.548Z,2.50
2019-05-26T20:08:09.738Z,2.03
2019-05-26T20:10:39.373Z,2.87
2019-05-26T20:13:08.769Z,4.63
2019-05-26T20:15:38.482Z,3.07
2019-05-26T20:18:08.184Z,3.00
2019-05-26T20:20:37.576Z,3.20
2019-05-26T20:23:07.212Z,3.80
2019-05-26T20:25:36.844Z,3.27
2019-05-26T20:28:06.516Z,3.53
2019-05-26T20:30:36.226Z,3.97
2019-05-26T20:33:05.972Z,5.30
2019-05-26T20:35:35.600Z,3.30
2019-05-26T20:38:04.953Z,5.30
2019-05-26T20:40:34.353Z,4.10
2019-05-26T20:43:03.973Z,3.77
2019-05-26T20:45:33.603Z,4.03
2019-05-26T20:48:02.975Z,3.77
2019-05-26T20:50:32.618Z,3.30
2019-05-26T20:53:02.229Z,3.40
2019-05-26T20:55:31.608Z,3.70
2019-05-26T20:58:00.989Z,3.37
2019-05-26T21:00:30.803Z,3.25
2019-05-26T21:03:00.532Z,3.13
2019-05-26T21:05:30.227Z,2.93
2019-05-26T21:07:59.636Z,3.20
2019-05-26T21:10:29.014Z,4.40
2019-05-26T21:12:58.388Z,3.53
2019-05-26T21:15:27.761Z,4.20
2019-05-26T21:17:57.150Z,3.20
2019-05-26T21:20:26.529Z,4.40
2019-05-26T21:22:56.248Z,3.33
2019-05-26T21:25:25.623Z,3.43
2019-05-26T21:27:55.061Z,3.53
2019-05-26T21:30:24.765Z,3.40
2019-05-26T21:32:54.153Z,2.80
2019-05-26T21:35:23.883Z,2.90
2019-05-26T21:37:53.267Z,2.60
2019-05-26T21:40:22.652Z,3.10
2019-05-26T21:42:52.391Z,2.50
2019-05-26T21:45:21.768Z,3.23
2019-05-26T21:47:51.159Z,2.87
2019-05-26T21:50:20.929Z,3.00
2019-05-26T21:52:50.354Z,2.43
2019-05-26T21:55:20.043Z,2.80
2019-05-26T21:57:49.432Z,2.47
2019-05-26T22:00:23.552Z,2.70
2019-05-26T22:02:53.250Z,2.47
2019-05-26T22:05:22.638Z,2.60
2019-05-26T22:07:52.034Z,2.80
2019-05-26T22:10:22.589Z,3.13
2019-05-26T22:12:51.970Z,2.57
2019-05-26T22:15:21.586Z,2.70
2019-05-26T22:17:51.310Z,3.47
2019-05-26T22:20:21.096Z,3.50
2019-05-26T22:22:50.487Z,4.50
2019-05-26T22:25:20.857Z,3.73
2019-05-26T22:27:50.557Z,3.80
2019-05-26T22:30:20.586Z,3.00
2019-05-26T22:32:49.985Z,3.10
2019-05-26T22:35:19.366Z,3.70
2019-05-26T22:37:49.093Z,3.30
2019-05-26T22:40:18.634Z,2.90
2019-05-26T22:42:48.322Z,4.27
2019-05-26T22:45:18.244Z,2.50
2019-05-26T22:47:53.438Z,3.47
2019-05-26T22:50:23.069Z,3.70
2019-05-26T22:52:52.694Z,2.93
2019-05-26T22:55:22.067Z,2.70
2019-05-26T22:57:51.695Z,2.50
2019-05-26T23:00:42.397Z,3.17
2019-05-26T23:03:12.101Z,3.50
2019-05-26T23:05:41.483Z,2.83
2019-05-26T23:08:10.870Z,2.70
2019-05-26T23:10:40.518Z,2.50
2019-05-26T23:13:10.223Z,2.80
2019-05-26T23:15:39.652Z,2.60
2019-05-26T23:18:09.336Z,2.50
2019-05-26T23:20:39.048Z,2.37
2019-05-26T23:23:08.753Z,2.53
2019-05-26T23:25:38.132Z,2.90
2019-05-26T23:28:07.610Z,2.53
2019-05-26T23:30:37.277Z,2.80
2019-05-26T23:33:06.990Z,2.60
2019-05-26T23:35:36.373Z,2.60
2019-05-26T23:38:05.932Z,2.67
2019-05-26T23:40:35.313Z,2.70
2019-05-26T23:43:04.703Z,2.23
2019-05-26T23:45:34.434Z,3.30
2019-05-26T23:48:03.800Z,2.60
2019-05-26T23:50:33.524Z,2.90
2019-05-26T23:53:02.918Z,3.13
2019-05-26T23:55:32.294Z,2.80
2019-05-26T23:58:01.686Z,2.70
